Time;durP1;ratioP1;P1;durP2;ratioP2;P2;SDS_P1;SDS_P2;PMS_P1;PMS_P2;Temp;Humidity;BMP_temperature;BMP_pressure;BME280_temperature;BME280_humidity;BME280_pressure;Samples;Min_cycle;Max_cycle;Signal;HPM_P1;HPM_P2
2023/12/08 00:01:57;;;;;;;23.23;12.95;;;;;;;;;;5143387;27;20070;-60
2023/12/08 00:04:23;;;;;;;22.00;12.95;;;;;;;;;;5134711;27;20163;-59
2023/12/08 00:06:52;;;;;;;19.70;13.05;;;;;;;;;;5144116;27;20055;-59
2023/12/08 00:09:19;;;;;;;21.42;13.23;;;;;;;;;;5142351;27;20051;-59
2023/12/08 00:11:45;;;;;;;24.35;14.57;;;;;;;;;;5143876;27;20185;-59
2023/12/08 00:14:12;;;;;;;22.00;13.93;;;;;;;;;;5144956;27;20123;-59
2023/12/08 00:16:38;;;;;;;24.20;14.18;;;;;;;;;;5145770;27;20059;-59
2023/12/08 00:19:05;;;;;;;22.65;13.88;;;;;;;;;;5137258;27;20052;-59
2023/12/08 00:21:31;;;;;;;27.20;14.77;;;;;;;;;;5144652;27;20051;-59
2023/12/08 00:23:57;;;;;;;23.27;14.10;;;;;;;;;;5125055;27;20135;-59
2023/12/08 00:26:24;;;;;;;23.95;15.00;;;;;;;;;;5125104;27;20052;-59
2023/12/08 00:28:50;;;;;;;23.33;14.95;;;;;;;;;;5128894;27;20441;-60
2023/12/08 00:31:17;;;;;;;25.38;14.70;;;;;;;;;;5142675;27;20596;-59
2023/12/08 00:33:43;;;;;;;23.45;14.30;;;;;;;;;;5144943;27;20134;-60
2023/12/08 00:36:13;;;;;;;25.55;14.75;;;;;;;;;;5144261;27;20523;-59
2023/12/08 00:38:40;;;;;;;23.25;14.25;;;;;;;;;;5144812;27;20047;-58
2023/12/08 00:41:08;;;;;;;27.42;15.13;;;;;;;;;;5136320;27;20595;-59
2023/12/08 00:43:34;;;;;;;23.40;14.55;;;;;;;;;;5143708;27;20058;-59
2023/12/08 00:46:00;;;;;;;23.48;15.05;;;;;;;;;;5144932;27;20077;-57
2023/12/08 00:48:27;;;;;;;26.58;14.48;;;;;;;;;;5145309;27;20426;-59
2023/12/08 00:50:53;;;;;;;26.77;15.65;;;;;;;;;;5143976;27;20138;-59
2023/12/08 00:53:19;;;;;;;24.52;15.18;;;;;;;;;;5136944;27;20047;-59
2023/12/08 00:55:46;;;;;;;23.65;15.10;;;;;;;;;;5124716;27;20109;-59
2023/12/08 00:58:14;;;;;;;24.30;16.10;;;;;;;;;;5125224;27;20518;-59
2023/12/08 01:00:41;;;;;;;24.92;15.30;;;;;;;;;;5127954;27;20054;-59
2023/12/08 01:03:07;;;;;;;28.67;16.60;;;;;;;;;;5139342;27;20139;-59
2023/12/08 01:05:34;;;;;;;23.45;15.30;;;;;;;;;;5140847;27;20120;-59
2023/12/08 01:08:00;;;;;;;24.45;14.90;;;;;;;;;;5141816;27;20749;-60
2023/12/08 01:10:27;;;;;;;24.90;15.32;;;;;;;;;;5142008;27;20054;-59
2023/12/08 01:12:53;;;;;;;23.77;14.45;;;;;;;;;;5143967;27;20105;-59
2023/12/08 01:15:19;;;;;;;23.58;14.98;;;;;;;;;;5145213;27;20568;-59
2023/12/08 01:17:46;;;;;;;26.63;14.82;;;;;;;;;;5144296;27;20083;-59
2023/12/08 01:20:13;;;;;;;25.00;15.50;;;;;;;;;;5144485;27;20050;-59
2023/12/08 01:22:39;;;;;;;24.52;15.65;;;;;;;;;;5144023;27;20051;-58
2023/12/08 01:25:06;;;;;;;23.65;14.32;;;;;;;;;;5144458;27;20075;-59
2023/12/08 01:27:32;;;;;;;23.90;15.15;;;;;;;;;;5143291;27;20716;-59
2023/12/08 01:29:58;;;;;;;22.23;14.38;;;;;;;;;;5144078;27;20513;-59
2023/12/08 01:32:25;;;;;;;23.77;14.50;;;;;;;;;;5143156;27;20051;-59
2023/12/08 01:34:52;;;;;;;23.92;15.13;;;;;;;;;;5145463;27;20051;-59
2023/12/08 01:37:18;;;;;;;22.33;14.00;;;;;;;;;;5142793;27;20047;-58
2023/12/08 01:39:46;;;;;;;25.75;15.63;;;;;;;;;;5143516;27;20504;-59
2023/12/08 01:42:12;;;;;;;20.50;13.73;;;;;;;;;;5142205;27;20051;-60
2023/12/08 01:44:39;;;;;;;23.05;14.27;;;;;;;;;;5144359;27;20059;-58
2023/12/08 01:47:06;;;;;;;24.00;14.70;;;;;;;;;;5142958;27;20051;-59
2023/12/08 01:49:37;;;;;;;25.75;14.52;;;;;;;;;;5144178;27;20094;-59
2023/12/08 01:52:04;;;;;;;20.65;13.95;;;;;;;;;;5142942;27;20828;-60
2023/12/08 01:54:30;;;;;;;22.05;14.20;;;;;;;;;;5137297;27;20624;-59
2023/12/08 01:56:58;;;;;;;24.05;15.13;;;;;;;;;;5147462;27;20062;-60
2023/12/08 01:59:24;;;;;;;21.42;14.18;;;;;;;;;;5147830;27;20070;-59
2023/12/08 02:01:51;;;;;;;24.73;14.60;;;;;;;;;;5147243;27;20540;-59
2023/12/08 02:04:18;;;;;;;20.83;14.60;;;;;;;;;;5138399;27;20054;-59
2023/12/08 02:06:44;;;;;;;23.08;13.75;;;;;;;;;;5129818;27;20051;-59
2023/12/08 02:09:15;;;;;;;22.10;13.75;;;;;;;;;;5147721;27;20735;-59
2023/12/08 02:11:42;;;;;;;23.15;13.52;;;;;;;;;;5146099;27;20058;-59
2023/12/08 02:14:13;;;;;;;22.15;12.52;;;;;;;;;;5144800;27;20200;-59
2023/12/08 02:16:42;;;;;;;23.60;14.27;;;;;;;;;;5146378;27;20526;-59
2023/12/08 02:19:12;;;;;;;18.20;12.75;;;;;;;;;;5147332;27;20077;-59
2023/12/08 02:21:39;;;;;;;19.98;13.23;;;;;;;;;;5146778;27;20058;-59
2023/12/08 02:24:05;;;;;;;20.35;13.02;;;;;;;;;;5147760;27;20759;-59
2023/12/08 02:26:32;;;;;;;22.63;12.80;;;;;;;;;;5146661;27;20058;-59
2023/12/08 02:28:58;;;;;;;20.50;13.52;;;;;;;;;;5145792;27;20523;-59
2023/12/08 02:31:29;;;;;;;19.60;12.98;;;;;;;;;;5144676;27;20482;-59
2023/12/08 02:33:56;;;;;;;22.10;13.20;;;;;;;;;;5147339;27;20158;-58
2023/12/08 02:36:24;;;;;;;19.13;13.30;;;;;;;;;;5146895;27;20050;-60
2023/12/08 02:38:51;;;;;;;20.02;12.82;;;;;;;;;;5145939;27;21483;-59
2023/12/08 02:41:18;;;;;;;19.52;13.30;;;;;;;;;;5145718;27;20078;-60
2023/12/08 02:43:44;;;;;;;18.05;12.38;;;;;;;;;;5145642;27;20085;-59
2023/12/08 02:46:11;;;;;;;20.60;12.70;;;;;;;;;;5145327;27;20497;-59
2023/12/08 02:48:38;;;;;;;17.92;12.00;;;;;;;;;;5144617;27;20055;-59
2023/12/08 02:51:04;;;;;;;24.15;14.63;;;;;;;;;;5145647;27;20052;-59
2023/12/08 02:53:31;;;;;;;21.48;13.23;;;;;;;;;;5146772;27;20051;-60
2023/12/08 02:55:57;;;;;;;19.95;12.50;;;;;;;;;;5139283;27;20082;-60
2023/12/08 02:58:24;;;;;;;21.40;13.35;;;;;;;;;;5146001;27;20059;-59
2023/12/08 03:00:50;;;;;;;21.73;13.32;;;;;;;;;;5144878;27;20051;-60
2023/12/08 03:03:17;;;;;;;19.95;12.93;;;;;;;;;;5140914;27;20469;-58
2023/12/08 03:05:43;;;;;;;19.08;13.13;;;;;;;;;;5144427;27;20098;-59
2023/12/08 03:08:09;;;;;;;20.63;12.48;;;;;;;;;;5145150;27;20456;-60
2023/12/08 03:10:36;;;;;;;19.23;13.00;;;;;;;;;;5145343;27;20086;-59
2023/12/08 03:13:02;;;;;;;18.52;12.27;;;;;;;;;;5145443;27;20509;-59
2023/12/08 03:15:29;;;;;;;24.55;13.82;;;;;;;;;;5146572;27;20059;-61
2023/12/08 03:17:55;;;;;;;23.70;14.15;;;;;;;;;;5146244;27;20047;-59
2023/12/08 03:20:22;;;;;;;22.42;13.55;;;;;;;;;;5144289;27;20067;-59
2023/12/08 03:22:48;;;;;;;20.20;13.43;;;;;;;;;;5145251;27;20051;-60
2023/12/08 03:25:15;;;;;;;21.10;13.95;;;;;;;;;;5147115;27;20047;-60
2023/12/08 03:27:41;;;;;;;21.80;13.43;;;;;;;;;;5146021;27;20051;-59
2023/12/08 03:30:08;;;;;;;21.42;13.10;;;;;;;;;;5144749;27;20139;-59
2023/12/08 03:32:34;;;;;;;17.73;12.52;;;;;;;;;;5145955;27;20449;-60
2023/12/08 03:35:01;;;;;;;22.40;13.48;;;;;;;;;;5145415;27;20055;-61
2023/12/08 03:37:27;;;;;;;21.98;13.40;;;;;;;;;;5145894;27;20062;-60
2023/12/08 03:39:54;;;;;;;21.85;13.20;;;;;;;;;;5144931;27;20062;-59
2023/12/08 03:42:20;;;;;;;21.58;13.30;;;;;;;;;;5143551;27;20047;-59
2023/12/08 03:44:47;;;;;;;22.10;13.75;;;;;;;;;;5145641;27;20142;-59
2023/12/08 03:47:13;;;;;;;20.50;13.00;;;;;;;;;;5146063;27;20054;-59
2023/12/08 03:49:40;;;;;;;21.33;12.57;;;;;;;;;;5144347;27;20517;-60
2023/12/08 03:52:06;;;;;;;21.02;13.02;;;;;;;;;;5146385;27;20520;-58
2023/12/08 03:54:33;;;;;;;21.95;13.63;;;;;;;;;;5145512;27;20489;-59
2023/12/08 03:56:59;;;;;;;22.75;13.02;;;;;;;;;;5145990;27;20108;-60
2023/12/08 03:59:25;;;;;;;19.65;13.02;;;;;;;;;;5135184;27;20055;-60
2023/12/08 04:01:52;;;;;;;20.58;13.43;;;;;;;;;;5143729;27;20058;-60
2023/12/08 04:04:19;;;;;;;20.65;14.20;;;;;;;;;;5142953;27;20469;-60
2023/12/08 04:06:53;;;;;;;23.95;12.70;;;;;;;;;;5144527;27;20055;-60
2023/12/08 04:09:20;;;;;;;22.05;14.38;;;;;;;;;;5145529;27;20048;-60
2023/12/08 04:11:46;;;;;;;21.13;13.75;;;;;;;;;;5144803;27;20825;-59
2023/12/08 04:14:13;;;;;;;21.38;14.15;;;;;;;;;;5145362;27;20051;-58
2023/12/08 04:16:39;;;;;;;22.52;13.48;;;;;;;;;;5144773;27;20058;-60
2023/12/08 04:19:06;;;;;;;24.20;13.93;;;;;;;;;;5146517;27;20410;-59
2023/12/08 04:21:32;;;;;;;21.95;14.55;;;;;;;;;;5145006;27;20055;-59
2023/12/08 04:23:58;;;;;;;23.13;14.13;;;;;;;;;;5145712;27;20125;-60
2023/12/08 04:26:25;;;;;;;22.05;14.98;;;;;;;;;;5143268;27;20489;-60
2023/12/08 04:28:52;;;;;;;23.88;14.35;;;;;;;;;;5145028;27;20386;-60
2023/12/08 04:31:19;;;;;;;23.30;14.63;;;;;;;;;;5143775;27;20051;-59
2023/12/08 04:33:46;;;;;;;22.00;13.95;;;;;;;;;;5145498;27;20051;-59
2023/12/08 04:36:13;;;;;;;25.08;14.75;;;;;;;;;;5144565;27;20059;-58
2023/12/08 04:38:39;;;;;;;24.27;16.33;;;;;;;;;;5141633;27;20147;-60
2023/12/08 04:41:06;;;;;;;24.65;15.38;;;;;;;;;;5139976;27;20602;-60
2023/12/08 04:43:32;;;;;;;25.05;15.20;;;;;;;;;;5141635;27;20429;-60
2023/12/08 04:45:59;;;;;;;23.42;15.35;;;;;;;;;;5145518;27;20051;-60
2023/12/08 04:48:25;;;;;;;23.65;15.52;;;;;;;;;;5144521;27;20141;-60
2023/12/08 04:50:52;;;;;;;25.95;15.15;;;;;;;;;;5144525;27;20082;-58
2023/12/08 04:53:18;;;;;;;27.27;15.43;;;;;;;;;;5144062;27;20272;-59
2023/12/08 04:55:45;;;;;;;23.23;14.65;;;;;;;;;;5144816;27;20129;-59
2023/12/08 04:58:12;;;;;;;22.63;15.13;;;;;;;;;;5144839;27;20497;-59
2023/12/08 05:00:39;;;;;;;21.58;14.40;;;;;;;;;;5144641;27;20051;-59
2023/12/08 05:03:05;;;;;;;24.60;14.80;;;;;;;;;;5140021;27;20047;-60
2023/12/08 05:05:33;;;;;;;26.02;15.32;;;;;;;;;;5144468;27;20662;-59
2023/12/08 05:08:00;;;;;;;23.27;15.45;;;;;;;;;;5144099;27;20055;-59
2023/12/08 05:10:26;;;;;;;24.55;14.75;;;;;;;;;;5144085;27;20509;-59
2023/12/08 05:12:52;;;;;;;27.00;15.63;;;;;;;;;;5144302;27;20134;-59
2023/12/08 05:15:19;;;;;;;23.90;14.93;;;;;;;;;;5145455;27;20479;-59
2023/12/08 05:17:46;;;;;;;21.52;13.93;;;;;;;;;;5141724;27;20560;-59
2023/12/08 05:20:13;;;;;;;24.25;15.02;;;;;;;;;;5142388;27;20057;-59
2023/12/08 05:22:39;;;;;;;24.48;15.40;;;;;;;;;;5143768;27;20128;-58
2023/12/08 05:25:06;;;;;;;27.52;16.83;;;;;;;;;;5144870;27;20087;-60
2023/12/08 05:27:32;;;;;;;29.38;16.48;;;;;;;;;;5143929;27;20059;-60
2023/12/08 05:29:59;;;;;;;24.98;15.68;;;;;;;;;;5144436;27;20528;-60
2023/12/08 05:32:26;;;;;;;24.83;16.38;;;;;;;;;;5141705;27;20057;-59
2023/12/08 05:34:53;;;;;;;23.80;15.07;;;;;;;;;;5144790;27;20047;-58
2023/12/08 05:37:19;;;;;;;27.25;15.98;;;;;;;;;;5142893;27;20047;-59
2023/12/08 05:39:46;;;;;;;28.15;16.55;;;;;;;;;;5143863;27;20055;-59
2023/12/08 05:42:13;;;;;;;23.00;15.30;;;;;;;;;;5143182;27;20130;-59
2023/12/08 05:44:40;;;;;;;24.13;15.90;;;;;;;;;;5133774;27;20150;-59
2023/12/08 05:47:06;;;;;;;24.50;16.00;;;;;;;;;;5135864;27;20055;-57
2023/12/08 05:49:32;;;;;;;28.95;16.48;;;;;;;;;;5134513;27;20058;-60
2023/12/08 05:51:59;;;;;;;28.45;15.82;;;;;;;;;;5138552;27;20430;-60
2023/12/08 05:54:25;;;;;;;26.17;15.85;;;;;;;;;;5142861;27;20054;-60
2023/12/08 05:56:52;;;;;;;25.42;15.30;;;;;;;;;;5144767;27;20055;-60
2023/12/08 05:59:18;;;;;;;24.10;15.73;;;;;;;;;;5144867;27;20100;-59
2023/12/08 06:01:45;;;;;;;25.73;15.63;;;;;;;;;;5144392;27;20047;-60
2023/12/08 06:04:11;;;;;;;24.55;15.88;;;;;;;;;;5144097;27;20058;-59
2023/12/08 06:06:38;;;;;;;27.77;16.65;;;;;;;;;;5144464;27;20501;-59
2023/12/08 06:09:07;;;;;;;25.98;15.32;;;;;;;;;;5143633;27;20597;-59
2023/12/08 06:11:33;;;;;;;28.10;15.93;;;;;;;;;;5144001;27;20055;-59
2023/12/08 06:14:00;;;;;;;24.33;15.52;;;;;;;;;;5144084;27;20062;-59
2023/12/08 06:16:27;;;;;;;26.73;16.58;;;;;;;;;;5144102;27;20157;-59
2023/12/08 06:18:53;;;;;;;24.75;16.50;;;;;;;;;;5144721;27;20055;-59
2023/12/08 06:21:20;;;;;;;29.63;15.20;;;;;;;;;;5142839;27;20071;-59
2023/12/08 06:23:46;;;;;;;28.55;17.52;;;;;;;;;;5123194;27;20056;-59
2023/12/08 06:26:13;;;;;;;28.73;16.00;;;;;;;;;;5123807;27;20078;-59
2023/12/08 06:28:40;;;;;;;28.95;16.20;;;;;;;;;;5123549;27;20067;-59
2023/12/08 06:31:12;;;;;;;27.73;16.70;;;;;;;;;;5142878;27;20136;-60
2023/12/08 06:33:38;;;;;;;27.15;16.92;;;;;;;;;;5143858;27;20373;-60
2023/12/08 06:36:06;;;;;;;24.08;15.65;;;;;;;;;;5142940;27;20051;-59
2023/12/08 06:38:33;;;;;;;26.95;16.52;;;;;;;;;;5136909;27;20056;-59
2023/12/08 06:40:59;;;;;;;29.33;16.95;;;;;;;;;;5147434;27;20051;-60
2023/12/08 06:43:26;;;;;;;28.52;16.23;;;;;;;;;;5147220;27;20490;-60
2023/12/08 06:45:53;;;;;;;30.23;17.80;;;;;;;;;;5146919;27;20569;-60
2023/12/08 06:48:23;;;;;;;30.65;17.05;;;;;;;;;;5147608;27;20054;-59
2023/12/08 06:50:50;;;;;;;25.02;16.38;;;;;;;;;;5146070;27;20426;-59
2023/12/08 06:53:17;;;;;;;31.35;18.13;;;;;;;;;;5147374;27;20047;-58
2023/12/08 06:55:43;;;;;;;30.67;17.85;;;;;;;;;;5137638;27;20551;-60
2023/12/08 06:58:10;;;;;;;28.63;17.30;;;;;;;;;;5126708;27;20469;-60
2023/12/08 07:00:36;;;;;;;28.52;17.83;;;;;;;;;;5126254;27;20185;-60
2023/12/08 07:03:03;;;;;;;26.08;16.67;;;;;;;;;;5126160;27;20052;-59
2023/12/08 07:05:30;;;;;;;27.83;16.73;;;;;;;;;;5139359;27;20051;-60
2023/12/08 07:07:57;;;;;;;28.35;17.13;;;;;;;;;;5147025;27;20138;-59
2023/12/08 07:10:24;;;;;;;28.48;16.98;;;;;;;;;;5145536;27;20055;-59
2023/12/08 07:12:50;;;;;;;28.20;18.08;;;;;;;;;;5136832;27;20532;-60
2023/12/08 07:15:16;;;;;;;33.55;18.35;;;;;;;;;;5126293;27;20083;-59
2023/12/08 07:17:43;;;;;;;34.08;18.17;;;;;;;;;;5126196;27;20570;-59
2023/12/08 07:20:10;;;;;;;29.25;17.63;;;;;;;;;;5125423;27;20052;-59
2023/12/08 07:22:37;;;;;;;35.97;19.13;;;;;;;;;;5125771;27;20052;-57
2023/12/08 07:25:04;;;;;;;27.73;16.60;;;;;;;;;;5134399;27;20051;-59
2023/12/08 07:27:32;;;;;;;33.63;17.38;;;;;;;;;;5146432;27;20334;-59
2023/12/08 07:29:58;;;;;;;33.63;18.33;;;;;;;;;;5135275;27;20053;-58
2023/12/08 07:32:25;;;;;;;34.53;18.35;;;;;;;;;;5125451;27;20139;-59
2023/12/08 07:34:51;;;;;;;30.73;17.67;;;;;;;;;;5133257;27;20043;-59
2023/12/08 07:37:18;;;;;;;32.15;18.63;;;;;;;;;;5135887;27;20520;-60
2023/12/08 07:39:44;;;;;;;31.48;18.20;;;;;;;;;;5125814;27;20509;-59
2023/12/08 07:42:11;;;;;;;38.00;19.88;;;;;;;;;;5126002;27;20608;-60
2023/12/08 07:44:37;;;;;;;33.20;20.23;;;;;;;;;;5129425;27;20047;-59
2023/12/08 07:47:04;;;;;;;31.40;19.98;;;;;;;;;;5133978;27;20056;-59
2023/12/08 07:49:30;;;;;;;31.10;18.58;;;;;;;;;;5129555;27;20587;-59
2023/12/08 07:51:57;;;;;;;41.97;19.10;;;;;;;;;;5124528;27;20841;-60
2023/12/08 07:54:24;;;;;;;36.45;20.80;;;;;;;;;;5125528;27;20482;-59
2023/12/08 07:56:50;;;;;;;37.63;20.05;;;;;;;;;;5125989;27;20147;-59
2023/12/08 07:59:17;;;;;;;35.35;20.40;;;;;;;;;;5130037;27;20050;-60
2023/12/08 08:01:43;;;;;;;37.15;19.67;;;;;;;;;;5146313;27;20055;-59
2023/12/08 08:04:10;;;;;;;41.95;20.50;;;;;;;;;;5133631;27;20055;-59
2023/12/08 08:06:36;;;;;;;38.83;20.58;;;;;;;;;;5125609;27;20047;-60
2023/12/08 08:09:03;;;;;;;39.28;19.50;;;;;;;;;;5125132;27;20100;-60
2023/12/08 08:11:30;;;;;;;33.17;18.63;;;;;;;;;;5123829;27;20048;-59
2023/12/08 08:13:58;;;;;;;35.50;19.92;;;;;;;;;;5125188;27;20496;-60
2023/12/08 08:16:24;;;;;;;33.72;19.63;;;;;;;;;;5126053;27;20051;-58
2023/12/08 08:18:50;;;;;;;37.60;19.25;;;;;;;;;;5136626;27;20135;-59
2023/12/08 08:21:17;;;;;;;37.60;18.85;;;;;;;;;;5131166;27;20668;-58
2023/12/08 08:23:44;;;;;;;37.72;20.95;;;;;;;;;;5106530;27;20052;-58
2023/12/08 08:26:10;;;;;;;35.80;18.90;;;;;;;;;;5130553;27;20059;-59
2023/12/08 08:28:37;;;;;;;34.05;19.02;;;;;;;;;;5134005;27;20488;-59
2023/12/08 08:31:03;;;;;;;40.53;20.55;;;;;;;;;;5140139;27;20684;-58
2023/12/08 08:33:29;;;;;;;40.05;19.88;;;;;;;;;;5137390;27;20048;-59
2023/12/08 08:35:56;;;;;;;35.25;19.75;;;;;;;;;;5144623;27;20494;-58
2023/12/08 08:38:23;;;;;;;36.28;19.58;;;;;;;;;;5146152;27;20127;-59
2023/12/08 08:40:50;;;;;;;38.92;19.80;;;;;;;;;;5140269;27;20051;-59
2023/12/08 08:43:16;;;;;;;42.85;18.58;;;;;;;;;;5137340;27;20058;-59
2023/12/08 08:45:43;;;;;;;40.33;20.08;;;;;;;;;;5136048;27;20146;-60
2023/12/08 08:48:09;;;;;;;34.25;18.13;;;;;;;;;;5127613;27;20501;-59
2023/12/08 08:50:36;;;;;;;36.08;18.83;;;;;;;;;;5132331;27;20075;-59
2023/12/08 08:53:16;;;;;;;37.92;18.80;;;;;;;;;;5128904;27;20047;-59
2023/12/08 08:55:43;;;;;;;37.08;19.48;;;;;;;;;;5141497;27;20063;-59
2023/12/08 08:58:09;;;;;;;41.88;19.70;;;;;;;;;;5145264;27;20138;-61
2023/12/08 09:00:35;;;;;;;41.10;20.17;;;;;;;;;;5145102;27;20049;-60
2023/12/08 09:03:02;;;;;;;35.85;19.30;;;;;;;;;;5142818;27;20126;-59
2023/12/08 09:05:30;;;;;;;44.50;18.50;;;;;;;;;;5144711;27;20417;-60
2023/12/08 09:07:57;;;;;;;38.75;19.05;;;;;;;;;;5127248;27;20050;-59
2023/12/08 09:10:23;;;;;;;40.65;20.30;;;;;;;;;;5144751;27;20146;-59
2023/12/08 09:12:49;;;;;;;40.88;21.02;;;;;;;;;;5126181;27;20093;-60
2023/12/08 09:15:16;;;;;;;45.75;19.95;;;;;;;;;;5137795;27;20566;-59
2023/12/08 09:17:42;;;;;;;39.35;19.58;;;;;;;;;;5139514;27;20724;-58
2023/12/08 09:20:14;;;;;;;44.78;20.42;;;;;;;;;;5126088;27;20205;-59
2023/12/08 09:22:41;;;;;;;41.22;20.27;;;;;;;;;;5137634;27;20055;-59
2023/12/08 09:25:08;;;;;;;49.70;20.27;;;;;;;;;;5139685;27;20055;-59
2023/12/08 09:27:35;;;;;;;46.42;21.10;;;;;;;;;;5138761;27;20104;-59
2023/12/08 09:30:01;;;;;;;45.78;21.38;;;;;;;;;;5124334;27;20394;-59
2023/12/08 09:32:28;;;;;;;45.67;20.98;;;;;;;;;;5127889;27;20062;-58
2023/12/08 09:34:55;;;;;;;55.67;21.92;;;;;;;;;;5130762;27;20105;-59
2023/12/08 09:37:21;;;;;;;47.97;21.45;;;;;;;;;;5129173;27;20105;-60
2023/12/08 09:40:01;;;;;;;44.08;19.67;;;;;;;;;;5126402;27;20043;-59
2023/12/08 09:42:30;;;;;;;47.22;20.25;;;;;;;;;;5132966;27;20162;-60
2023/12/08 09:44:56;;;;;;;51.70;21.98;;;;;;;;;;5140732;27;20059;-59
2023/12/08 09:47:25;;;;;;;56.67;22.08;;;;;;;;;;5146713;27;20050;-58
2023/12/08 09:49:52;;;;;;;52.83;21.35;;;;;;;;;;5145793;27;20058;-57
2023/12/08 09:52:21;;;;;;;52.83;21.30;;;;;;;;;;5144521;27;20043;-58
2023/12/08 09:54:48;;;;;;;44.88;20.85;;;;;;;;;;5144395;27;20058;-59
2023/12/08 09:57:15;;;;;;;52.35;21.73;;;;;;;;;;5144638;27;20062;-59
2023/12/08 09:59:42;;;;;;;58.63;22.58;;;;;;;;;;5143254;27;20047;-60
2023/12/08 10:02:09;;;;;;;55.63;22.77;;;;;;;;;;5151603;27;20424;-59
2023/12/08 10:04:35;;;;;;;56.10;20.95;;;;;;;;;;5143548;27;20055;-59
2023/12/08 10:07:05;;;;;;;48.92;21.70;;;;;;;;;;5135146;27;20098;-60
2023/12/08 10:09:32;;;;;;;52.97;22.08;;;;;;;;;;5143764;27;20055;-60
2023/12/08 10:11:58;;;;;;;57.33;22.65;;;;;;;;;;5142565;27;20590;-59
2023/12/08 10:14:25;;;;;;;49.50;21.45;;;;;;;;;;5144815;27;20055;-59
2023/12/08 10:16:52;;;;;;;59.85;23.23;;;;;;;;;;5147891;27;20104;-59
2023/12/08 10:19:20;;;;;;;68.68;22.65;;;;;;;;;;5142784;27;20144;-59
2023/12/08 10:22:02;;;;;;;60.53;24.15;;;;;;;;;;5126566;27;20471;-59
2023/12/08 10:24:30;;;;;;;77.70;22.90;;;;;;;;;;5143590;27;20440;-58
2023/12/08 10:26:57;;;;;;;60.88;23.08;;;;;;;;;;5138025;27;20054;-59
2023/12/08 10:29:23;;;;;;;63.78;23.77;;;;;;;;;;5126192;27;20059;-58
2023/12/08 10:31:50;;;;;;;61.97;22.90;;;;;;;;;;5126443;27;20108;-57
2023/12/08 10:34:16;;;;;;;57.25;23.38;;;;;;;;;;5126923;27;20147;-58
2023/12/08 10:36:43;;;;;;;71.30;23.98;;;;;;;;;;5126891;27;20056;-59
2023/12/08 10:39:09;;;;;;;63.50;22.77;;;;;;;;;;5126670;27;20814;-59
2023/12/08 10:41:36;;;;;;;68.78;23.98;;;;;;;;;;5126461;27;20134;-59
2023/12/08 10:44:03;;;;;;;62.67;24.35;;;;;;;;;;5125554;27;20051;-58
2023/12/08 10:46:30;;;;;;;71.30;23.95;;;;;;;;;;5126303;27;20121;-58
2023/12/08 10:48:57;;;;;;;71.70;24.42;;;;;;;;;;5126988;27;20082;-59
2023/12/08 10:51:24;;;;;;;70.07;24.55;;;;;;;;;;5126556;27;20083;-57
2023/12/08 10:53:51;;;;;;;75.55;25.52;;;;;;;;;;5127497;27;20059;-59
2023/12/08 10:56:20;;;;;;;74.05;25.98;;;;;;;;;;5126650;27;20062;-59
2023/12/08 10:58:50;;;;;;;71.00;26.30;;;;;;;;;;5125349;27;20052;-58
2023/12/08 11:01:18;;;;;;;67.82;24.65;;;;;;;;;;5133577;27;20075;-59
2023/12/08 11:03:48;;;;;;;76.80;25.98;;;;;;;;;;5147029;27;20512;-58
2023/12/08 11:06:28;;;;;;;73.68;25.52;;;;;;;;;;5146661;27;20062;-58
2023/12/08 11:08:57;;;;;;;77.32;26.55;;;;;;;;;;5145534;27;20055;-59
2023/12/08 11:11:24;;;;;;;74.30;26.33;;;;;;;;;;5141012;27;20090;-58
2023/12/08 11:13:53;;;;;;;103.30;26.83;;;;;;;;;;5139550;27;20589;-58
2023/12/08 11:16:25;;;;;;;80.22;26.80;;;;;;;;;;5131017;27;20499;-59
2023/12/08 11:18:52;;;;;;;77.75;25.10;;;;;;;;;;5126543;27;20187;-59
2023/12/08 11:21:19;;;;;;;72.60;25.05;;;;;;;;;;5126206;27;20052;-58
2023/12/08 11:23:46;;;;;;;82.88;27.70;;;;;;;;;;5135378;27;20082;-59
2023/12/08 11:26:31;;;;;;;81.88;28.38;;;;;;;;;;5146714;27;20047;-59
2023/12/08 11:29:03;;;;;;;95.70;27.38;;;;;;;;;;5126269;27;20520;-60
2023/12/08 11:31:36;;;;;;;83.20;26.33;;;;;;;;;;5131772;27;20055;-59
2023/12/08 11:34:11;;;;;;;92.47;26.45;;;;;;;;;;5146468;27;20090;-59
2023/12/08 11:36:42;;;;;;;86.40;28.55;;;;;;;;;;5146348;27;20124;-58
2023/12/08 11:39:27;;;;;;;92.28;26.92;;;;;;;;;;5146577;27;20074;-60
2023/12/08 11:41:53;;;;;;;102.15;28.55;;;;;;;;;;5146040;27;20417;-59
2023/12/08 11:44:20;;;;;;;98.05;27.83;;;;;;;;;;5140576;27;20488;-59
2023/12/08 11:46:50;;;;;;;92.03;29.65;;;;;;;;;;5126454;27;20055;-59
2023/12/08 11:49:16;;;;;;;100.78;28.23;;;;;;;;;;5125688;27;20521;-59
2023/12/08 11:52:03;;;;;;;105.13;28.83;;;;;;;;;;5125549;27;20788;-58
2023/12/08 11:54:35;;;;;;;104.57;28.85;;;;;;;;;;5135544;27;20044;-59
2023/12/08 11:57:03;;;;;;;116.60;30.88;;;;;;;;;;5142843;27;20421;-59
2023/12/08 11:59:29;;;;;;;114.68;30.27;;;;;;;;;;5146007;27;20531;-57
2023/12/08 12:01:56;;;;;;;99.53;31.15;;;;;;;;;;5135232;27;20052;-57
2023/12/08 12:04:23;;;;;;;104.80;30.83;;;;;;;;;;5125425;27;20051;-58
2023/12/08 12:06:53;;;;;;;108.82;30.23;;;;;;;;;;5126816;27;20112;-58
2023/12/08 12:09:20;;;;;;;125.13;35.05;;;;;;;;;;5124479;27;20105;-59
2023/12/08 12:11:50;;;;;;;126.00;38.20;;;;;;;;;;5124617;27;20473;-59
2023/12/08 12:14:17;;;;;;;131.00;35.20;;;;;;;;;;5126583;27;20054;-57
2023/12/08 12:16:47;;;;;;;124.22;31.52;;;;;;;;;;5125111;27;20055;-59
2023/12/08 12:19:14;;;;;;;143.25;36.72;;;;;;;;;;5137223;27;20132;-58
2023/12/08 12:21:42;;;;;;;153.55;35.35;;;;;;;;;;5142613;27;20050;-59
2023/12/08 12:24:08;;;;;;;150.38;34.72;;;;;;;;;;5132161;27;20503;-60
2023/12/08 12:26:35;;;;;;;169.55;37.05;;;;;;;;;;5142491;27;20070;-59
2023/12/08 12:29:01;;;;;;;114.03;33.20;;;;;;;;;;5142387;27;20509;-57
2023/12/08 12:31:28;;;;;;;141.70;33.08;;;;;;;;;;5136574;27;20146;-59
2023/12/08 12:33:54;;;;;;;131.85;33.47;;;;;;;;;;5145816;27;20100;-59
2023/12/08 12:36:20;;;;;;;136.38;47.47;;;;;;;;;;5145182;27;20047;-60
2023/12/08 12:38:47;;;;;;;193.82;48.47;;;;;;;;;;5144710;27;20047;-58
2023/12/08 12:41:23;;;;;;;158.82;35.33;;;;;;;;;;5144723;27;20108;-58
2023/12/08 12:44:01;;;;;;;159.70;39.22;;;;;;;;;;5144651;27;20597;-59
2023/12/08 12:46:27;;;;;;;182.10;37.95;;;;;;;;;;5143754;27;20570;-59
2023/12/08 12:48:54;;;;;;;146.77;36.63;;;;;;;;;;5145658;27;20104;-58
2023/12/08 12:51:34;;;;;;;147.88;35.33;;;;;;;;;;5145167;27;20051;-60
2023/12/08 12:54:03;;;;;;;151.60;37.83;;;;;;;;;;5144956;27;20187;-59
2023/12/08 12:56:31;;;;;;;138.65;40.20;;;;;;;;;;5144645;27;20100;-59
2023/12/08 12:59:05;;;;;;;174.70;39.97;;;;;;;;;;5145345;27;20051;-58
2023/12/08 13:01:31;;;;;;;176.65;44.30;;;;;;;;;;5145215;27;20460;-58
2023/12/08 13:03:58;;;;;;;149.88;35.05;;;;;;;;;;5144923;27;20574;-59
2023/12/08 13:06:26;;;;;;;166.52;38.42;;;;;;;;;;5144865;27;20054;-59
2023/12/08 13:08:53;;;;;;;180.93;39.03;;;;;;;;;;5142465;27;20522;-58
2023/12/08 13:11:19;;;;;;;152.65;37.53;;;;;;;;;;5143638;27;20051;-59
2023/12/08 13:13:46;;;;;;;123.68;30.52;;;;;;;;;;5143974;27;20054;-59
2023/12/08 13:16:12;;;;;;;135.45;30.60;;;;;;;;;;5144755;27;20666;-56
2023/12/08 13:18:46;;;;;;;132.35;31.83;;;;;;;;;;5144716;27;20108;-59
2023/12/08 13:21:13;;;;;;;136.35;30.90;;;;;;;;;;5144281;27;20051;-59
2023/12/08 13:23:39;;;;;;;147.35;32.58;;;;;;;;;;5144559;27;20051;-57
2023/12/08 13:26:06;;;;;;;133.10;32.25;;;;;;;;;;5144603;27;20138;-58
2023/12/08 13:28:32;;;;;;;151.70;33.53;;;;;;;;;;5143849;27;20086;-58
2023/12/08 13:30:59;;;;;;;156.82;34.97;;;;;;;;;;5144150;27;20576;-60
2023/12/08 13:33:25;;;;;;;139.73;34.78;;;;;;;;;;5142929;27;20226;-59
2023/12/08 13:35:53;;;;;;;154.30;32.33;;;;;;;;;;5131085;27;20043;-59
2023/12/08 13:38:19;;;;;;;127.63;31.38;;;;;;;;;;5143377;27;20051;-59
2023/12/08 13:40:46;;;;;;;144.15;32.70;;;;;;;;;;5141267;27;20131;-58
2023/12/08 13:43:12;;;;;;;118.38;30.98;;;;;;;;;;5138199;27;20307;-63
2023/12/08 13:45:39;;;;;;;131.00;30.05;;;;;;;;;;5144655;27;20055;-58
2023/12/08 13:48:06;;;;;;;143.05;32.67;;;;;;;;;;5145681;27;20051;-58
2023/12/08 13:50:33;;;;;;;140.82;33.47;;;;;;;;;;5147998;27;20055;-58
2023/12/08 13:53:08;;;;;;;159.75;33.42;;;;;;;;;;5148171;27;20134;-59
2023/12/08 13:55:35;;;;;;;124.85;31.30;;;;;;;;;;5148370;27;20054;-58
2023/12/08 13:58:01;;;;;;;136.13;31.00;;;;;;;;;;5147944;27;20136;-58
2023/12/08 14:00:28;;;;;;;163.07;32.63;;;;;;;;;;5147902;27;20101;-58
2023/12/08 14:02:54;;;;;;;127.03;31.95;;;;;;;;;;5147888;27;20062;-58
2023/12/08 14:05:22;;;;;;;142.32;33.90;;;;;;;;;;5148286;27;20057;-59
2023/12/08 14:07:50;;;;;;;132.82;30.30;;;;;;;;;;5148268;27;20049;-58
2023/12/08 14:10:20;;;;;;;140.13;31.33;;;;;;;;;;5148360;27;20078;-59
2023/12/08 14:12:48;;;;;;;159.98;32.35;;;;;;;;;;5147833;27;20055;-58
2023/12/08 14:15:15;;;;;;;150.65;33.03;;;;;;;;;;5148340;27;20046;-58